This is the latest recevied weather packets stored in our database for station/object S50APT-10. If no packets are shown the sender has not sent any weather packets the latest 10 day(s).
| Time | Temp. | Humidity | Pressure | Rain* | Wind** | Luminosity | Snow |
|---|---|---|---|---|---|---|---|
| 1777750129 | 18.33° C | 35% | 1022.5 hPa | - | - | - | - |
| 1777749228 | 17.22° C | 38% | 1022.5 hPa | - | - | - | - |
| 1777748327 | 18.33° C | 36% | 1022.4 hPa | - | - | - | - |
| 1777747425 | 18.33° C | 35% | 1022.4 hPa | - | - | - | - |
| 1777746525 | 18.33° C | 35% | 1022.2 hPa | - | - | - | - |
| 1777745624 | 18.33° C | 35% | 1022.1 hPa | - | - | - | - |
| 1777744724 | 18.89° C | 34% | 1022.1 hPa | - | - | - | - |
| 1777743823 | 20° C | 32% | 1022 hPa | - | - | - | - |
| 1777742923 | 21.67° C | 31% | 1022 hPa | - | - | - | - |
| 1777742022 | 24.44° C | 26% | 1022.1 hPa | - | - | - | - |
| 1777741122 | 26.11° C | 23% | 1022.1 hPa | - | - | - | - |
| 1777740221 | 26.11° C | 24% | 1022.2 hPa | - | - | - | - |
| 1777739320 | 26.67° C | 23% | 1022.4 hPa | - | - | - | - |
| 1777738420 | 23.89° C | 27% | 1022.5 hPa | - | - | - | - |
| 1777737520 | 25° C | 26% | 1022.7 hPa | - | - | - | - |
| 1777736619 | 23.89° C | 26% | 1022.9 hPa | - | - | - | - |
| 1777735719 | 30° C | 20% | 1023.1 hPa | - | - | - | - |
| 1777734818 | 27.22° C | 24% | 1023.1 hPa | - | - | - | - |
| 1777733917 | 33.89° C | 16% | 1023.4 hPa | - | - | - | - |
| 1777733196 | 31.11° C | 20% | 1023.4 hPa | - | - | - | - |
| 1777733017 | 31.11° C | 20% | 1023.4 hPa | - | - | - | - |
| 1777732117 | 26.67° C | 22% | 1023.6 hPa | - | - | - | - |
| 1777731216 | 26.67° C | 23% | 1023.7 hPa | - | - | - | - |
| 1777730316 | 28.89° C | 22% | 1023.9 hPa | - | - | - | - |
| 1777729415 | 31.67° C | 20% | 1024 hPa | - | - | - | - |
* Rain since midnight (hover to see other rain measurements)
** Current wind speed in m/s (hover to see current wind gust speed)